createdAt,value
2023-04-02T00:01:36.721Z,101317.34
2023-04-02T00:04:08.956Z,101312.84
2023-04-02T00:06:40.414Z,101319.16
2023-04-02T00:09:13.190Z,101325.09
2023-04-02T00:11:42.178Z,101299.13
2023-04-02T00:14:19.268Z,101329.56
2023-04-02T00:16:45.953Z,101295.34
2023-04-02T00:19:19.699Z,101321.50
2023-04-02T00:21:46.976Z,101306.97
2023-04-02T00:24:17.284Z,101349.38
2023-04-02T00:26:49.010Z,101331.66
2023-04-02T00:29:16.628Z,101341.78
2023-04-02T00:31:48.747Z,101343.91
2023-04-02T00:34:23.035Z,101359.81
2023-04-02T00:36:50.952Z,101337.50
2023-04-02T00:39:23.117Z,101364.00
2023-04-02T00:42:06.834Z,101371.91
2023-04-02T00:44:37.903Z,101380.16
2023-04-02T00:47:12.167Z,101374.59
2023-04-02T00:49:40.331Z,101336.34
2023-04-02T00:52:10.169Z,101394.66
2023-04-02T00:54:47.193Z,101357.13
2023-04-02T00:57:20.314Z,101398.31
2023-04-02T01:00:07.573Z,101375.88
2023-04-02T01:02:38.253Z,101415.00
2023-04-02T01:05:22.170Z,101400.41
2023-04-02T01:07:57.590Z,101419.28
2023-04-02T01:10:36.028Z,101424.78
2023-04-02T01:13:07.183Z,101394.03
2023-04-02T01:15:39.115Z,101402.41
2023-04-02T01:18:33.643Z,101437.53
2023-04-02T01:21:09.591Z,101398.22
2023-04-02T01:23:35.898Z,101433.41
2023-04-02T01:26:23.861Z,101423.03
2023-04-02T01:29:13.834Z,101430.03
2023-04-02T01:31:40.889Z,101448.91
2023-04-02T01:34:15.273Z,101436.81
2023-04-02T01:36:51.173Z,101460.41
2023-04-02T01:39:53.085Z,101448.50
2023-04-02T01:42:32.058Z,101457.84
2023-04-02T01:45:05.405Z,101472.97
2023-04-02T01:47:33.179Z,101470.03
2023-04-02T01:50:26.159Z,101482.44
2023-04-02T01:52:55.480Z,101474.13
2023-04-02T01:55:45.895Z,101494.03
2023-04-02T01:58:13.924Z,101490.03
2023-04-02T02:00:51.407Z,101503.28
2023-04-02T02:03:19.088Z,101483.88
2023-04-02T02:05:46.444Z,101510.50
2023-04-02T02:08:40.288Z,101521.47
2023-04-02T02:11:08.343Z,101526.97
2023-04-02T02:13:34.804Z,101511.16
2023-04-02T02:16:02.040Z,101529.66
2023-04-02T02:18:29.081Z,101510.69
2023-04-02T02:20:58.147Z,101536.81
2023-04-02T02:23:24.840Z,101543.38
2023-04-02T02:25:51.413Z,101502.97
2023-04-02T02:28:33.536Z,101522.16
2023-04-02T02:31:03.935Z,101551.66
2023-04-02T02:33:39.519Z,101562.56
2023-04-02T02:36:08.939Z,101554.91
2023-04-02T02:39:01.070Z,101538.25
2023-04-02T02:41:35.517Z,101588.50
2023-04-02T02:44:24.234Z,101587.00
2023-04-02T02:46:54.877Z,101593.50
2023-04-02T02:49:28.563Z,101598.03
2023-04-02T02:52:03.728Z,101599.84
2023-04-02T02:54:32.620Z,101591.59
2023-04-02T02:57:03.435Z,101587.81
2023-04-02T02:59:30.834Z,101570.13
2023-04-02T03:01:58.154Z,101615.41
2023-04-02T03:04:25.302Z,101591.34
2023-04-02T03:06:53.197Z,101612.22
2023-04-02T03:09:31.445Z,101606.63
2023-04-02T03:12:15.843Z,101641.00
2023-04-02T03:14:54.785Z,101611.66
2023-04-02T03:17:26.106Z,101639.31
2023-04-02T03:19:57.614Z,101635.56
2023-04-02T03:22:27.121Z,101666.44
2023-04-02T03:25:01.891Z,101664.34
2023-04-02T03:27:31.232Z,101628.44
2023-04-02T03:30:03.957Z,101680.09
2023-04-02T03:32:33.041Z,101654.19
2023-04-02T03:35:03.482Z,101671.00
2023-04-02T03:38:00.793Z,101691.75
2023-04-02T03:40:31.963Z,101694.28
2023-04-02T03:43:04.045Z,101700.88
2023-04-02T03:45:37.063Z,101686.81
2023-04-02T03:48:10.633Z,101689.50
2023-04-02T03:50:47.442Z,101710.13
2023-04-02T03:53:13.835Z,101702.22
2023-04-02T03:55:41.881Z,101735.53
2023-04-02T03:58:18.857Z,101717.63
2023-04-02T04:00:51.912Z,101729.75
2023-04-02T04:03:24.579Z,101713.41
2023-04-02T04:05:53.822Z,101716.03
2023-04-02T04:08:42.442Z,101739.88
2023-04-02T04:11:14.377Z,101760.72
2023-04-02T04:13:54.429Z,101747.38
2023-04-02T04:16:27.410Z,101767.47
2023-04-02T04:19:03.516Z,101753.63
2023-04-02T04:21:31.178Z,101734.44
2023-04-02T04:24:03.758Z,101767.84
2023-04-02T04:26:57.142Z,101784.22
2023-04-02T04:29:47.124Z,101795.75
2023-04-02T04:32:32.337Z,101782.78
2023-04-02T04:35:26.007Z,101815.59
2023-04-02T04:37:58.821Z,101820.44
2023-04-02T04:40:36.464Z,101794.19
2023-04-02T04:43:15.988Z,101772.28
2023-04-02T04:45:55.844Z,101819.28
2023-04-02T04:48:50.058Z,101844.59
2023-04-02T04:51:24.077Z,101840.78
2023-04-02T04:53:52.531Z,101835.22
2023-04-02T04:56:22.231Z,101867.97
2023-04-02T04:58:50.830Z,101870.16
2023-04-02T05:01:23.228Z,101812.06
2023-04-02T05:03:58.643Z,101878.53
2023-04-02T05:06:52.019Z,101887.53
2023-04-02T05:09:24.627Z,101891.75
2023-04-02T05:12:10.991Z,101894.31
2023-04-02T05:14:50.632Z,101895.88
2023-04-02T05:17:21.432Z,101890.78
2023-04-02T05:19:53.240Z,101898.06
2023-04-02T05:22:22.062Z,101915.63
2023-04-02T05:24:53.812Z,101934.09
2023-04-02T05:27:29.106Z,101931.50
2023-04-02T05:30:10.641Z,101924.00
2023-04-02T05:32:42.670Z,101923.75
2023-04-02T05:35:15.634Z,101930.44
2023-04-02T05:37:42.256Z,101931.63
2023-04-02T05:40:44.517Z,101955.75
2023-04-02T05:43:15.670Z,101942.72
2023-04-02T05:45:44.414Z,101970.03
2023-04-02T05:48:19.473Z,101915.38
2023-04-02T05:50:49.595Z,101961.13
2023-04-02T05:53:29.165Z,101985.44
2023-04-02T05:56:00.003Z,101989.75
2023-04-02T05:58:36.169Z,101963.66
2023-04-02T06:01:24.107Z,102002.28
2023-04-02T06:03:56.162Z,101986.16
2023-04-02T06:06:43.954Z,102018.25
2023-04-02T06:09:19.944Z,102021.16
2023-04-02T06:11:49.712Z,101992.34
2023-04-02T06:14:16.753Z,102021.97
2023-04-02T06:16:44.802Z,102002.25
2023-04-02T06:19:17.307Z,102029.84
2023-04-02T06:21:49.844Z,102028.03
2023-04-02T06:24:20.373Z,102065.25
2023-04-02T06:26:52.095Z,102076.19
2023-04-02T06:29:28.207Z,102055.22
2023-04-02T06:32:02.420Z,102095.69
2023-04-02T06:34:30.006Z,102083.28
2023-04-02T06:36:59.202Z,102092.06
2023-04-02T06:39:27.140Z,102103.22
2023-04-02T06:42:13.601Z,102112.25
2023-04-02T06:44:40.370Z,102070.47
2023-04-02T06:47:13.428Z,102110.66
2023-04-02T06:49:51.333Z,102102.19
2023-04-02T06:52:50.249Z,102113.22
2023-04-02T06:55:45.154Z,102124.69
2023-04-02T06:58:11.651Z,102130.38
2023-04-02T07:00:43.240Z,102121.84
2023-04-02T07:03:17.094Z,102144.50
2023-04-02T07:05:43.497Z,102136.31
2023-04-02T07:08:09.918Z,102151.06
2023-04-02T07:10:37.021Z,102147.09
2023-04-02T07:13:03.472Z,102165.84
2023-04-02T07:15:30.037Z,102147.72
2023-04-02T07:17:59.027Z,102132.78
2023-04-02T07:20:37.561Z,102153.59
2023-04-02T07:23:04.226Z,102183.69
2023-04-02T07:25:30.878Z,102179.13
2023-04-02T07:27:57.418Z,102194.03
2023-04-02T07:30:24.053Z,102186.81
2023-04-02T07:32:51.686Z,102158.03
2023-04-02T07:35:18.257Z,102172.59
2023-04-02T07:37:44.691Z,102178.78
2023-04-02T07:40:20.506Z,102230.91
2023-04-02T07:42:46.914Z,102190.81
2023-04-02T07:45:13.850Z,102208.34
2023-04-02T07:47:40.809Z,102235.09
2023-04-02T07:50:08.536Z,102216.47
2023-04-02T07:52:42.545Z,102229.66
2023-04-02T07:55:13.491Z,102248.59
2023-04-02T07:57:50.493Z,102242.31
2023-04-02T08:00:17.735Z,102250.41
2023-04-02T08:02:44.399Z,102231.13
2023-04-02T08:05:11.112Z,102207.53
2023-04-02T08:07:38.983Z,102247.91
2023-04-02T08:10:06.997Z,102270.91
2023-04-02T08:12:33.454Z,102223.88
2023-04-02T08:14:59.963Z,102227.63
2023-04-02T08:17:31.258Z,102250.63
2023-04-02T08:20:01.000Z,102276.44
2023-04-02T08:22:28.796Z,102246.69
2023-04-02T08:24:56.348Z,102276.91
2023-04-02T08:27:24.342Z,102288.06
2023-04-02T08:29:51.184Z,102254.31
2023-04-02T08:32:18.111Z,102295.78
2023-04-02T08:34:45.460Z,102309.75
2023-04-02T08:37:12.567Z,102312.75
2023-04-02T08:39:40.031Z,102275.47
2023-04-02T08:42:38.249Z,102314.28
2023-04-02T08:45:38.300Z,102327.66
2023-04-02T08:48:06.441Z,102321.72
2023-04-02T08:50:35.443Z,102308.22
2023-04-02T08:53:07.869Z,102333.84
2023-04-02T08:55:42.718Z,102335.19
2023-04-02T08:58:28.010Z,102345.19
2023-04-02T09:00:55.479Z,102318.63
2023-04-02T09:03:31.870Z,102339.25
2023-04-02T09:05:58.509Z,102344.09
2023-04-02T09:08:26.192Z,102346.50
2023-04-02T09:11:09.067Z,102348.00
2023-04-02T09:13:41.036Z,102344.97
2023-04-02T09:16:12.756Z,102347.06
2023-04-02T09:18:39.458Z,102318.50
2023-04-02T09:21:21.130Z,102363.19
2023-04-02T09:23:48.210Z,102361.44
2023-04-02T09:26:41.097Z,102365.59
2023-04-02T09:29:13.499Z,102372.53
2023-04-02T09:31:50.899Z,102370.41
2023-04-02T09:34:31.847Z,102365.53
2023-04-02T09:37:07.245Z,102366.38
2023-04-02T09:39:34.389Z,102344.38
2023-04-02T09:42:06.183Z,102367.91
2023-04-02T09:44:32.876Z,102380.19
2023-04-02T09:47:03.912Z,102386.38
2023-04-02T09:49:33.130Z,102365.28
2023-04-02T09:52:09.002Z,102397.75
2023-04-02T09:54:41.793Z,102393.84
2023-04-02T09:57:23.522Z,102375.72
2023-04-02T10:00:41.821Z,102371.84
2023-04-02T10:03:32.807Z,102391.97
2023-04-02T10:06:15.427Z,102399.31
2023-04-02T10:08:43.685Z,102395.03
2023-04-02T10:11:30.958Z,102419.09
2023-04-02T10:14:06.570Z,102389.00
2023-04-02T10:16:44.837Z,102427.16
2023-04-02T10:19:36.738Z,102427.72
2023-04-02T10:22:12.817Z,102404.31
2023-04-02T10:24:39.719Z,102415.66
2023-04-02T10:27:29.547Z,102393.50
2023-04-02T10:30:21.111Z,102445.91
2023-04-02T10:33:38.705Z,102447.75
2023-04-02T10:36:35.605Z,102448.69
2023-04-02T10:39:08.421Z,102429.28
2023-04-02T10:41:46.827Z,102411.13
2023-04-02T10:44:33.416Z,102432.25
2023-04-02T10:47:19.772Z,102436.38
2023-04-02T10:49:46.339Z,102444.41
2023-04-02T10:52:21.593Z,102434.28
2023-04-02T10:54:47.955Z,102459.19
2023-04-02T10:57:32.640Z,102452.56
2023-04-02T11:00:09.295Z,102464.16
2023-04-02T11:02:49.474Z,102386.72
2023-04-02T11:05:45.289Z,102442.38
2023-04-02T11:08:51.285Z,102473.81
2023-04-02T11:11:21.447Z,102461.00
2023-04-02T11:13:58.973Z,102465.81
2023-04-02T11:16:25.635Z,102454.91
2023-04-02T11:19:17.178Z,102479.00
2023-04-02T11:22:01.469Z,102479.94
2023-04-02T11:24:34.408Z,102465.03
2023-04-02T11:27:11.099Z,102487.75
2023-04-02T11:29:39.533Z,102486.38
2023-04-02T11:32:25.179Z,102502.84
2023-04-02T11:35:06.341Z,102475.53
2023-04-02T11:37:37.360Z,102509.63
2023-04-02T11:40:15.766Z,102522.94
2023-04-02T11:42:44.006Z,102502.94
2023-04-02T11:45:28.706Z,102516.50
2023-04-02T11:48:01.342Z,102527.09
2023-04-02T11:50:39.564Z,102527.72
2023-04-02T11:53:21.554Z,102504.59
2023-04-02T11:55:54.001Z,102533.34
2023-04-02T11:58:27.473Z,102529.44
2023-04-02T12:01:14.710Z,102492.28
2023-04-02T12:04:05.621Z,102528.63
2023-04-02T12:06:49.228Z,102483.19
2023-04-02T12:09:19.668Z,102527.94
2023-04-02T12:11:47.410Z,102490.97
2023-04-02T12:14:41.540Z,102532.84
2023-04-02T12:17:16.264Z,102544.78
2023-04-02T12:19:48.094Z,102549.16
2023-04-02T12:22:19.470Z,102506.84
2023-04-02T12:24:47.584Z,102528.16
2023-04-02T12:27:27.612Z,102539.97
2023-04-02T12:29:56.031Z,102529.56
2023-04-02T12:32:29.893Z,102555.47
2023-04-02T12:34:58.076Z,102547.28
2023-04-02T12:37:27.280Z,102555.84
2023-04-02T12:40:01.204Z,102553.97
2023-04-02T12:42:37.585Z,102521.47
2023-04-02T12:45:06.792Z,102560.94
2023-04-02T12:47:33.301Z,102537.84
2023-04-02T12:50:00.762Z,102536.84
2023-04-02T12:52:28.930Z,102544.50
2023-04-02T12:55:00.718Z,102528.13
2023-04-02T12:57:31.729Z,102558.97
2023-04-02T13:00:06.115Z,102528.78
2023-04-02T13:02:44.581Z,102548.75
2023-04-02T13:05:11.818Z,102558.91
2023-04-02T13:07:38.590Z,102522.84
2023-04-02T13:10:23.124Z,102507.31
2023-04-02T13:12:55.419Z,102543.69
2023-04-02T13:15:23.900Z,102562.03
2023-04-02T13:18:02.591Z,102567.44
2023-04-02T13:20:39.206Z,102568.72
2023-04-02T13:23:31.319Z,102569.63
2023-04-02T13:26:10.892Z,102564.66
2023-04-02T13:28:37.533Z,102534.91
2023-04-02T13:31:04.095Z,102529.19
2023-04-02T13:33:30.555Z,102538.75
2023-04-02T13:35:57.026Z,102536.22
2023-04-02T13:38:23.484Z,102523.00
2023-04-02T13:40:51.290Z,102538.69
2023-04-02T13:43:19.731Z,102571.81
2023-04-02T13:45:52.072Z,102555.50
2023-04-02T13:48:18.707Z,102513.59
2023-04-02T13:50:46.216Z,102546.19
2023-04-02T13:53:28.358Z,102558.84
2023-04-02T13:55:54.984Z,102549.75
2023-04-02T13:58:21.689Z,102539.88
2023-04-02T14:00:48.281Z,102564.03
2023-04-02T14:03:21.755Z,102544.88
2023-04-02T14:05:58.078Z,102605.59
2023-04-02T14:08:53.330Z,102598.41
2023-04-02T14:12:04.716Z,102600.34
2023-04-02T14:14:56.153Z,102582.41
2023-04-02T14:17:56.496Z,102607.09
2023-04-02T14:21:04.073Z,102607.56
2023-04-02T14:23:33.455Z,102601.81
2023-04-02T14:26:11.942Z,102606.69
2023-04-02T14:28:50.615Z,102599.16
2023-04-02T14:31:23.132Z,102607.13
2023-04-02T14:33:57.739Z,102603.91
2023-04-02T14:36:42.700Z,102578.84
2023-04-02T14:39:24.498Z,102619.94
2023-04-02T14:42:05.105Z,102583.47
2023-04-02T14:44:37.021Z,102591.84
2023-04-02T14:47:33.995Z,102625.91
2023-04-02T14:50:11.988Z,102622.53
2023-04-02T14:52:41.834Z,102607.00
2023-04-02T14:55:32.821Z,102614.41
2023-04-02T14:58:02.423Z,102597.78
2023-04-02T15:00:41.814Z,102588.81
2023-04-02T15:03:32.382Z,102645.00
2023-04-02T15:06:06.842Z,102613.97
2023-04-02T15:09:08.311Z,102643.34
2023-04-02T15:11:43.471Z,102597.59
2023-04-02T15:14:17.140Z,102621.94
2023-04-02T15:16:43.961Z,102646.94
2023-04-02T15:19:13.353Z,102647.22
2023-04-02T15:21:58.947Z,102650.00
2023-04-02T15:24:50.601Z,102644.38
2023-04-02T15:27:49.540Z,102645.72
2023-04-02T15:30:22.071Z,102649.13
2023-04-02T15:32:49.316Z,102627.22
2023-04-02T15:35:55.619Z,102664.34
2023-04-02T15:38:37.350Z,102648.63
2023-04-02T15:41:23.543Z,102663.50
2023-04-02T15:44:14.712Z,102627.56
2023-04-02T15:46:59.431Z,102666.75
2023-04-02T15:49:54.885Z,102674.94
2023-04-02T15:52:30.348Z,102656.84
2023-04-02T15:55:02.746Z,102668.09
2023-04-02T15:57:54.652Z,102637.72
2023-04-02T16:00:28.354Z,102667.03
2023-04-02T16:03:20.970Z,102640.56
2023-04-02T16:06:16.862Z,102674.44
2023-04-02T16:09:14.376Z,102679.06
2023-04-02T16:11:40.787Z,102618.06
2023-04-02T16:14:17.213Z,102684.28
2023-04-02T16:16:46.710Z,102655.84
2023-04-02T16:19:28.927Z,102640.00
2023-04-02T16:22:26.930Z,102682.44
2023-04-02T16:25:00.280Z,102683.13
2023-04-02T16:27:37.720Z,102683.91
2023-04-02T16:30:29.957Z,102698.28
2023-04-02T16:33:31.845Z,102700.56
2023-04-02T16:36:08.929Z,102680.25
2023-04-02T16:38:50.595Z,102709.28
2023-04-02T16:41:35.254Z,102724.16
2023-04-02T16:44:20.622Z,102722.97
2023-04-02T16:46:56.174Z,102722.31
2023-04-02T16:49:51.930Z,102731.97
2023-04-02T16:52:21.306Z,102727.13
2023-04-02T16:54:53.729Z,102734.56
2023-04-02T16:57:58.912Z,102731.09
2023-04-02T17:00:36.997Z,102710.97
2023-04-02T17:03:37.492Z,102756.28
2023-04-02T17:06:09.212Z,102764.88
2023-04-02T17:08:59.696Z,102762.06
2023-04-02T17:11:47.545Z,102764.66
2023-04-02T17:14:41.250Z,102772.72
2023-04-02T17:17:11.523Z,102782.41
2023-04-02T17:19:39.417Z,102700.34
2023-04-02T17:22:06.276Z,102732.66
2023-04-02T17:24:39.374Z,102763.19
2023-04-02T17:27:29.146Z,102787.81
2023-04-02T17:30:01.272Z,102757.28
2023-04-02T17:32:31.445Z,102746.94
2023-04-02T17:35:12.568Z,102786.38
2023-04-02T17:37:43.376Z,102789.09
2023-04-02T17:40:26.252Z,102754.16
2023-04-02T17:43:05.445Z,102761.41
2023-04-02T17:46:05.270Z,102811.09
2023-04-02T17:48:45.390Z,102767.19
2023-04-02T17:51:11.756Z,102816.56
2023-04-02T17:54:07.341Z,102832.91
2023-04-02T17:56:52.649Z,102832.34
2023-04-02T17:59:28.228Z,102835.41
2023-04-02T18:02:12.913Z,102838.97
2023-04-02T18:05:20.711Z,102850.47
2023-04-02T18:08:05.740Z,102827.31
2023-04-02T18:10:39.673Z,102852.09
2023-04-02T18:13:23.946Z,102855.41
2023-04-02T18:16:02.166Z,102858.31
2023-04-02T18:18:58.908Z,102852.59
2023-04-02T18:21:39.421Z,102848.31
2023-04-02T18:24:10.451Z,102863.19
2023-04-02T18:27:03.192Z,102848.09
2023-04-02T18:29:41.989Z,102883.53
2023-04-02T18:32:34.214Z,102890.22
2023-04-02T18:35:03.504Z,102890.00
2023-04-02T18:37:39.422Z,102898.63
2023-04-02T18:40:24.485Z,102894.66
2023-04-02T18:43:28.635Z,102900.38
2023-04-02T18:45:59.375Z,102905.88
2023-04-02T18:48:56.607Z,102904.53
2023-04-02T18:51:25.135Z,102904.81
2023-04-02T18:53:57.147Z,102908.28
2023-04-02T18:56:24.587Z,102834.72
2023-04-02T18:58:56.748Z,102893.13
2023-04-02T19:01:28.126Z,102913.22
2023-04-02T19:04:04.545Z,102934.56
2023-04-02T19:06:42.061Z,102896.13
2023-04-02T19:09:18.128Z,102925.66
2023-04-02T19:11:44.514Z,102897.75
2023-04-02T19:14:14.241Z,102823.69
2023-04-02T19:17:02.581Z,102938.34
2023-04-02T19:19:37.948Z,102894.41
2023-04-02T19:22:41.743Z,102969.22
2023-04-02T19:25:30.407Z,102974.59
2023-04-02T19:28:07.719Z,102942.41
2023-04-02T19:30:57.289Z,102939.59
2023-04-02T19:33:44.299Z,102973.19
2023-04-02T19:36:38.792Z,102954.72
2023-04-02T19:39:28.161Z,102985.53
2023-04-02T19:42:03.437Z,102845.25
2023-04-02T19:44:29.976Z,102953.06
2023-04-02T19:46:56.561Z,102994.31
2023-04-02T19:49:33.731Z,102961.38
2023-04-02T19:52:00.397Z,102892.47
2023-04-02T19:54:26.850Z,102990.72
2023-04-02T19:56:53.445Z,102944.78
2023-04-02T19:59:20.006Z,102965.75
2023-04-02T20:01:46.924Z,102958.91
2023-04-02T20:04:13.839Z,102934.84
2023-04-02T20:06:40.402Z,102981.81
2023-04-02T20:09:08.497Z,102998.88
2023-04-02T20:11:36.788Z,102975.44
2023-04-02T20:14:03.584Z,102968.88
2023-04-02T20:16:32.690Z,103016.47
2023-04-02T20:18:59.170Z,102967.19
2023-04-02T20:21:26.726Z,102943.09
2023-04-02T20:23:54.395Z,102947.34
2023-04-02T20:26:22.499Z,102971.22
2023-04-02T20:28:49.012Z,102958.91
2023-04-02T20:31:18.146Z,103030.94
2023-04-02T20:33:45.274Z,103025.81
2023-04-02T20:36:16.321Z,103045.41
2023-04-02T20:38:43.478Z,103051.25
2023-04-02T20:41:09.979Z,102942.78
2023-04-02T20:43:37.573Z,102995.06
2023-04-02T20:46:05.644Z,103058.66
2023-04-02T20:48:33.110Z,103023.34
2023-04-02T20:51:00.558Z,103007.44
2023-04-02T20:53:29.154Z,103038.41
2023-04-02T20:56:06.380Z,102999.59
2023-04-02T20:58:34.218Z,103074.44
2023-04-02T21:01:17.179Z,103072.44
2023-04-02T21:03:43.872Z,103078.03
2023-04-02T21:06:15.793Z,103058.81
2023-04-02T21:08:42.878Z,103067.03
2023-04-02T21:11:10.028Z,103087.44
2023-04-02T21:13:37.071Z,103016.34
2023-04-02T21:16:05.218Z,103045.16
2023-04-02T21:18:32.712Z,103066.03
2023-04-02T21:21:01.381Z,103099.31
2023-04-02T21:23:29.083Z,103067.28
2023-04-02T21:25:58.595Z,102957.69
2023-04-02T21:28:25.351Z,103067.13
2023-04-02T21:30:51.821Z,102943.84
2023-04-02T21:33:18.244Z,103096.56
2023-04-02T21:35:44.700Z,103098.13
2023-04-02T21:38:11.129Z,103038.38
2023-04-02T21:40:37.522Z,103021.06
2023-04-02T21:43:03.938Z,103033.88
2023-04-02T21:45:30.438Z,103104.38
2023-04-02T21:47:56.882Z,103052.94
2023-04-02T21:50:23.425Z,103066.56
2023-04-02T21:52:49.901Z,103074.22
2023-04-02T21:55:16.359Z,102987.91
2023-04-02T21:57:42.843Z,103044.47
2023-04-02T22:00:12.327Z,103094.63
2023-04-02T22:02:39.063Z,103029.00
2023-04-02T22:05:06.130Z,103083.97
2023-04-02T22:07:32.564Z,102993.44
2023-04-02T22:09:59.009Z,103082.84
2023-04-02T22:12:25.482Z,103092.06
2023-04-02T22:14:51.883Z,103084.25
2023-04-02T22:17:18.306Z,103017.06
2023-04-02T22:19:44.757Z,103101.28
2023-04-02T22:22:11.181Z,103102.97
2023-04-02T22:24:37.579Z,103024.50
2023-04-02T22:27:04.011Z,103065.22
2023-04-02T22:29:30.392Z,103087.50
2023-04-02T22:31:56.827Z,103007.84
2023-04-02T22:34:23.327Z,103083.25
2023-04-02T22:36:49.879Z,103013.41
2023-04-02T22:39:17.074Z,103036.47
2023-04-02T22:41:43.644Z,103101.22
2023-04-02T22:44:14.145Z,102974.56
2023-04-02T22:46:40.679Z,103031.50
2023-04-02T22:49:07.275Z,103006.91
2023-04-02T22:51:33.848Z,103092.38
2023-04-02T22:54:00.235Z,103098.53
2023-04-02T22:56:32.033Z,103134.75
2023-04-02T22:58:58.822Z,103107.25
2023-04-02T23:01:32.192Z,103135.88
2023-04-02T23:03:58.646Z,103019.16
2023-04-02T23:06:25.379Z,103144.47
2023-04-02T23:08:52.284Z,103077.56
2023-04-02T23:11:24.691Z,103119.56
2023-04-02T23:13:52.507Z,103142.34
2023-04-02T23:16:19.725Z,103110.75
2023-04-02T23:18:48.076Z,103138.38
2023-04-02T23:21:15.561Z,103095.38
2023-04-02T23:23:42.002Z,103115.09
2023-04-02T23:26:13.727Z,103133.72
2023-04-02T23:28:40.644Z,103140.50
2023-04-02T23:31:09.322Z,103138.06
2023-04-02T23:33:35.736Z,103085.63
2023-04-02T23:36:17.629Z,103140.63
2023-04-02T23:38:44.111Z,103114.28
2023-04-02T23:41:14.722Z,103024.28
2023-04-02T23:43:41.377Z,103111.56
2023-04-02T23:46:07.782Z,103116.16
2023-04-02T23:48:34.289Z,103052.09
2023-04-02T23:51:00.832Z,103056.09
2023-04-02T23:53:27.281Z,103115.59
2023-04-02T23:55:53.693Z,103083.78
2023-04-02T23:58:20.220Z,102946.13
